Time;durP1;ratioP1;P1;durP2;ratioP2;P2;SDS_P1;SDS_P2;PMS_P1;PMS_P2;Temp;Humidity;BMP_temperature;BMP_pressure;BME280_temperature;BME280_humidity;BME280_pressure;Samples;Min_cycle;Max_cycle;Signal;HPM_P1;HPM_P2
2021/06/13 00:02:08;;;;;;;11.38;3.50;;;;;;;;;;5016751;28;20665;-77
2021/06/13 00:04:34;;;;;;;8.57;3.40;;;;;;;;;;4995609;28;20121;-77
2021/06/13 00:06:59;;;;;;;9.50;3.53;;;;;;;;;;4996800;28;20026;-77
2021/06/13 00:09:24;;;;;;;11.18;3.30;;;;;;;;;;5001376;28;20050;-77
2021/06/13 00:11:50;;;;;;;8.38;3.35;;;;;;;;;;5003881;28;20045;-77
2021/06/13 00:14:16;;;;;;;10.95;3.78;;;;;;;;;;5017902;28;20036;-77
2021/06/13 00:16:41;;;;;;;7.72;3.25;;;;;;;;;;5015033;28;20023;-77
2021/06/13 00:19:06;;;;;;;10.77;3.70;;;;;;;;;;5015654;28;20022;-77
2021/06/13 00:21:32;;;;;;;7.85;3.35;;;;;;;;;;5016247;28;20044;-77
2021/06/13 00:23:57;;;;;;;8.38;3.58;;;;;;;;;;5015239;28;20580;-76
2021/06/13 00:26:22;;;;;;;7.63;3.37;;;;;;;;;;5016048;28;20045;-77
2021/06/13 00:28:50;;;;;;;8.20;3.70;;;;;;;;;;5015911;28;20589;-78
2021/06/13 00:31:15;;;;;;;7.97;3.38;;;;;;;;;;5016085;28;20386;-77
2021/06/13 00:33:43;;;;;;;10.27;3.90;;;;;;;;;;5015296;28;20176;-77
2021/06/13 00:36:08;;;;;;;6.53;4.00;;;;;;;;;;5014893;28;20510;-77
2021/06/13 00:38:33;;;;;;;8.23;3.83;;;;;;;;;;5015068;28;20041;-77
2021/06/13 00:41:00;;;;;;;9.80;4.25;;;;;;;;;;5015400;28;20018;-77
2021/06/13 00:43:26;;;;;;;9.35;4.43;;;;;;;;;;5014015;28;20105;-77
2021/06/13 00:45:51;;;;;;;10.45;4.97;;;;;;;;;;5015696;28;20129;-77
2021/06/13 00:48:19;;;;;;;7.68;3.88;;;;;;;;;;5014569;28;20076;-77
2021/06/13 00:50:51;;;;;;;10.43;4.22;;;;;;;;;;5014886;28;20017;-77
2021/06/13 00:53:16;;;;;;;10.30;4.60;;;;;;;;;;5008996;28;20438;-76
2021/06/13 00:55:41;;;;;;;8.77;4.25;;;;;;;;;;5014380;28;20044;-76
2021/06/13 00:58:07;;;;;;;7.67;3.83;;;;;;;;;;5015010;28;20018;-77
2021/06/13 01:00:33;;;;;;;8.98;4.07;;;;;;;;;;5016695;28;20279;-78
2021/06/13 01:03:01;;;;;;;11.15;4.82;;;;;;;;;;5014834;28;20033;-78
2021/06/13 01:05:26;;;;;;;9.55;4.47;;;;;;;;;;5015191;28;20022;-78
2021/06/13 01:08:13;;;;;;;11.80;5.03;;;;;;;;;;5003439;28;20029;-77
2021/06/13 01:10:38;;;;;;;9.57;4.53;;;;;;;;;;4995336;28;20523;-78
2021/06/13 01:13:12;;;;;;;8.90;5.40;;;;;;;;;;5000157;28;20117;-78
2021/06/13 01:15:41;;;;;;;10.30;5.20;;;;;;;;;;4995514;28;20101;-78
2021/06/13 01:18:10;;;;;;;13.13;5.60;;;;;;;;;;5011048;28;20096;-77
2021/06/13 01:20:48;;;;;;;11.13;6.10;;;;;;;;;;5015488;28;20022;-77
2021/06/13 01:23:28;;;;;;;11.75;6.35;;;;;;;;;;5015705;28;20362;-77
2021/06/13 01:26:12;;;;;;;12.63;7.07;;;;;;;;;;5014834;28;20331;-77
2021/06/13 01:28:55;;;;;;;12.27;7.10;;;;;;;;;;5015239;28;20037;-77
2021/06/13 01:31:43;;;;;;;16.63;7.07;;;;;;;;;;5014752;28;20041;-76
2021/06/13 01:34:13;;;;;;;13.38;6.38;;;;;;;;;;5015648;28;20026;-77
2021/06/13 01:36:42;;;;;;;14.75;6.20;;;;;;;;;;5011773;28;20426;-77
2021/06/13 01:39:11;;;;;;;13.02;6.22;;;;;;;;;;5015067;28;20021;-77
2021/06/13 01:41:39;;;;;;;12.52;5.93;;;;;;;;;;5014316;28;20018;-77
2021/06/13 01:44:06;;;;;;;13.45;6.15;;;;;;;;;;5024094;28;20049;-77
2021/06/13 01:46:33;;;;;;;14.68;5.32;;;;;;;;;;5032586;28;20088;-77
2021/06/13 01:48:59;;;;;;;14.20;6.78;;;;;;;;;;5013969;28;20042;-76
2021/06/13 01:51:25;;;;;;;13.15;6.15;;;;;;;;;;5014040;28;20033;-78
2021/06/13 01:53:50;;;;;;;12.35;5.65;;;;;;;;;;5014786;28;20128;-77
2021/06/13 01:56:16;;;;;;;13.13;6.00;;;;;;;;;;5014360;28;20093;-77
2021/06/13 01:58:46;;;;;;;12.55;5.88;;;;;;;;;;5014179;28;20021;-77
2021/06/13 02:01:14;;;;;;;12.18;5.95;;;;;;;;;;5014440;28;20021;-76
2021/06/13 02:03:43;;;;;;;9.48;5.70;;;;;;;;;;5014976;28;20037;-75
2021/06/13 02:06:11;;;;;;;10.48;5.35;;;;;;;;;;5012770;28;20018;-78
2021/06/13 02:08:37;;;;;;;13.38;5.47;;;;;;;;;;5014455;28;20049;-77
2021/06/13 02:11:04;;;;;;;10.43;5.18;;;;;;;;;;5014309;28;20034;-76
2021/06/13 02:13:32;;;;;;;12.80;6.00;;;;;;;;;;5014510;28;20096;-76
2021/06/13 02:15:58;;;;;;;9.30;5.70;;;;;;;;;;5013350;28;20390;-77
2021/06/13 02:18:24;;;;;;;15.77;5.57;;;;;;;;;;5014498;28;20083;-76
2021/06/13 02:20:50;;;;;;;15.73;5.78;;;;;;;;;;5001565;28;20014;-77
2021/06/13 02:23:15;;;;;;;11.38;5.68;;;;;;;;;;4993094;28;20581;-76
2021/06/13 02:25:41;;;;;;;11.32;5.80;;;;;;;;;;4994318;28;20026;-77
2021/06/13 02:28:06;;;;;;;13.55;5.50;;;;;;;;;;4994368;28;20042;-76
2021/06/13 02:30:36;;;;;;;10.27;5.57;;;;;;;;;;4994419;28;20033;-76
2021/06/13 02:33:04;;;;;;;12.48;5.97;;;;;;;;;;4994585;28;20018;-76
2021/06/13 02:35:29;;;;;;;10.27;5.53;;;;;;;;;;4994559;28;20019;-77
2021/06/13 02:37:55;;;;;;;12.57;6.20;;;;;;;;;;5024569;28;20047;-76
2021/06/13 02:40:21;;;;;;;10.48;5.93;;;;;;;;;;5013626;28;20125;-76
2021/06/13 02:42:46;;;;;;;14.85;5.45;;;;;;;;;;4999706;28;20046;-76
2021/06/13 02:45:15;;;;;;;11.25;5.40;;;;;;;;;;4994093;28;20108;-76
2021/06/13 02:47:40;;;;;;;9.77;5.75;;;;;;;;;;5005126;28;20075;-76
2021/06/13 02:50:09;;;;;;;12.20;5.25;;;;;;;;;;5013736;28;20029;-77
2021/06/13 02:52:40;;;;;;;14.13;6.20;;;;;;;;;;5011009;28;20038;-77
2021/06/13 02:55:06;;;;;;;12.80;5.85;;;;;;;;;;5013692;28;20517;-77
2021/06/13 02:57:36;;;;;;;15.35;6.53;;;;;;;;;;5012986;28;20049;-76
2021/06/13 03:00:05;;;;;;;10.48;5.28;;;;;;;;;;5013371;28;20022;-76
2021/06/13 03:02:31;;;;;;;10.70;5.80;;;;;;;;;;5012983;28;20022;-76
2021/06/13 03:05:01;;;;;;;10.90;5.25;;;;;;;;;;5013125;28;20022;-77
2021/06/13 03:07:26;;;;;;;9.68;5.30;;;;;;;;;;5013452;28;20022;-78
2021/06/13 03:09:52;;;;;;;12.88;5.47;;;;;;;;;;5012849;28;20060;-77
2021/06/13 03:12:21;;;;;;;9.90;5.40;;;;;;;;;;4999528;28;20378;-78
2021/06/13 03:14:51;;;;;;;8.82;4.90;;;;;;;;;;5015300;28;20022;-78
2021/06/13 03:17:17;;;;;;;9.88;5.78;;;;;;;;;;5017000;28;20463;-77
2021/06/13 03:19:43;;;;;;;8.02;5.38;;;;;;;;;;5004279;28;20096;-77
2021/06/13 03:22:09;;;;;;;11.73;5.40;;;;;;;;;;4997653;28;20022;-77
2021/06/13 03:24:39;;;;;;;13.43;6.07;;;;;;;;;;5006761;28;20022;-77
2021/06/13 03:27:08;;;;;;;13.02;6.53;;;;;;;;;;5016937;28;20371;-76
2021/06/13 03:29:35;;;;;;;13.57;5.78;;;;;;;;;;5016874;28;20040;-77
2021/06/13 03:32:01;;;;;;;15.57;6.88;;;;;;;;;;5017175;28;20120;-76
2021/06/13 03:34:29;;;;;;;13.18;5.82;;;;;;;;;;5002781;28;20030;-76
2021/06/13 03:36:56;;;;;;;11.15;6.30;;;;;;;;;;5009224;28;20038;-76
2021/06/13 03:39:22;;;;;;;11.55;5.93;;;;;;;;;;5012652;28;20029;-76
2021/06/13 03:41:48;;;;;;;14.50;6.43;;;;;;;;;;5014277;28;20362;-76
2021/06/13 03:44:16;;;;;;;10.77;6.00;;;;;;;;;;5011646;28;20010;-76
2021/06/13 03:46:42;;;;;;;12.52;5.63;;;;;;;;;;5009110;28;20022;-76
2021/06/13 03:49:07;;;;;;;12.55;6.75;;;;;;;;;;5011545;28;20426;-76
2021/06/13 03:51:35;;;;;;;13.40;6.85;;;;;;;;;;5010997;28;20045;-76
2021/06/13 03:54:00;;;;;;;12.55;6.10;;;;;;;;;;5013829;28;20439;-77
2021/06/13 03:56:37;;;;;;;13.20;5.93;;;;;;;;;;5011564;28;20037;-77
2021/06/13 03:59:03;;;;;;;11.57;6.32;;;;;;;;;;5015888;28;20357;-77
2021/06/13 04:01:29;;;;;;;14.80;5.95;;;;;;;;;;5015163;28;20018;-76
2021/06/13 04:03:54;;;;;;;10.73;5.78;;;;;;;;;;5012115;28;20331;-77
2021/06/13 04:06:21;;;;;;;13.65;7.00;;;;;;;;;;5016457;28;20029;-79
2021/06/13 04:08:46;;;;;;;13.07;7.07;;;;;;;;;;5015843;28;20045;-78
2021/06/13 04:11:11;;;;;;;13.80;6.00;;;;;;;;;;5015158;28;20029;-79
2021/06/13 04:13:37;;;;;;;18.95;7.20;;;;;;;;;;5007157;28;20053;-79
2021/06/13 04:16:09;;;;;;;16.55;6.78;;;;;;;;;;4996360;28;20026;-79
2021/06/13 04:18:35;;;;;;;14.63;7.25;;;;;;;;;;4999464;28;20026;-80
2021/06/13 04:21:03;;;;;;;14.88;6.65;;;;;;;;;;5004244;28;20053;-79
2021/06/13 04:23:29;;;;;;;12.52;7.10;;;;;;;;;;5004571;28;20108;-79
2021/06/13 04:25:55;;;;;;;15.82;6.90;;;;;;;;;;5007879;28;20113;-80
2021/06/13 04:28:20;;;;;;;13.82;6.40;;;;;;;;;;5005774;28;20022;-69
2021/06/13 04:30:58;;;;;;;11.13;6.25;;;;;;;;;;5003554;28;20018;-69
2021/06/13 04:33:25;;;;;;;13.80;7.05;;;;;;;;;;5005003;28;20089;-69
2021/06/13 04:35:52;;;;;;;11.70;7.10;;;;;;;;;;5006933;28;20096;-68
2021/06/13 04:38:18;;;;;;;14.50;6.35;;;;;;;;;;5014506;28;20022;-71
2021/06/13 04:40:43;;;;;;;18.70;7.35;;;;;;;;;;5013900;28;20105;-72
2021/06/13 04:43:08;;;;;;;14.70;7.53;;;;;;;;;;4999836;28;20030;-71
2021/06/13 04:45:36;;;;;;;14.15;7.78;;;;;;;;;;5010429;28;20026;-71
2021/06/13 04:48:06;;;;;;;15.30;8.05;;;;;;;;;;5015744;28;20026;-72
2021/06/13 04:50:32;;;;;;;16.25;7.80;;;;;;;;;;5015702;28;20108;-72
2021/06/13 04:52:57;;;;;;;15.25;7.32;;;;;;;;;;5014933;28;20108;-72
2021/06/13 04:55:30;;;;;;;16.85;7.65;;;;;;;;;;5015476;28;20076;-71
2021/06/13 04:58:04;;;;;;;17.55;7.72;;;;;;;;;;5010798;28;20026;-72
2021/06/13 05:00:29;;;;;;;17.05;8.05;;;;;;;;;;5010937;28;20030;-73
2021/06/13 05:02:54;;;;;;;17.13;8.05;;;;;;;;;;4997504;28;20435;-73
2021/06/13 05:05:19;;;;;;;15.27;8.35;;;;;;;;;;5002068;28;20584;-74
2021/06/13 05:07:45;;;;;;;20.10;8.10;;;;;;;;;;5013701;28;20451;-74
2021/06/13 05:10:10;;;;;;;11.85;7.40;;;;;;;;;;5014898;28;20046;-74
2021/06/13 05:12:47;;;;;;;14.10;7.57;;;;;;;;;;5013493;28;20101;-76
2021/06/13 05:15:13;;;;;;;13.45;7.57;;;;;;;;;;5013376;28;20092;-74
2021/06/13 05:17:38;;;;;;;16.40;7.90;;;;;;;;;;5011265;28;20085;-74
2021/06/13 05:20:03;;;;;;;21.47;8.27;;;;;;;;;;5009870;28;20042;-74
2021/06/13 05:22:29;;;;;;;18.30;8.30;;;;;;;;;;5009118;28;20645;-74
2021/06/13 05:24:54;;;;;;;16.17;7.97;;;;;;;;;;5007997;28;20025;-74
2021/06/13 05:27:22;;;;;;;17.23;8.20;;;;;;;;;;5012630;28;20279;-74
2021/06/13 05:29:47;;;;;;;16.77;9.00;;;;;;;;;;5008235;28;20293;-74
2021/06/13 05:32:12;;;;;;;14.73;7.63;;;;;;;;;;5008901;28;20538;-73
2021/06/13 05:34:37;;;;;;;14.00;7.77;;;;;;;;;;5010940;28;20344;-74
2021/06/13 05:37:05;;;;;;;15.67;7.30;;;;;;;;;;5010061;28;20340;-73
2021/06/13 05:39:32;;;;;;;15.38;6.57;;;;;;;;;;5010374;28;20720;-74
2021/06/13 05:42:00;;;;;;;13.63;8.05;;;;;;;;;;5011065;28;20097;-74
2021/06/13 05:44:25;;;;;;;13.35;7.47;;;;;;;;;;5013123;28;20026;-73
2021/06/13 05:46:55;;;;;;;16.35;7.93;;;;;;;;;;5012534;28;20081;-73
2021/06/13 05:49:20;;;;;;;13.35;7.53;;;;;;;;;;5012842;28;20033;-74
2021/06/13 05:51:46;;;;;;;17.95;8.23;;;;;;;;;;5008627;28;20017;-73
2021/06/13 05:54:11;;;;;;;16.30;7.60;;;;;;;;;;5008754;28;20026;-73
2021/06/13 05:56:38;;;;;;;16.15;7.90;;;;;;;;;;5021389;28;20265;-75
2021/06/13 05:59:04;;;;;;;14.90;7.82;;;;;;;;;;5021714;28;20450;-70
2021/06/13 06:01:29;;;;;;;19.13;7.50;;;;;;;;;;5012747;28;20021;-70
2021/06/13 06:03:54;;;;;;;19.27;8.50;;;;;;;;;;5022852;28;20057;-70
2021/06/13 06:06:24;;;;;;;16.90;7.43;;;;;;;;;;5034023;28;20021;-71
2021/06/13 06:08:54;;;;;;;15.20;7.55;;;;;;;;;;5012151;28;20289;-70
2021/06/13 06:11:21;;;;;;;19.38;7.50;;;;;;;;;;5014396;28;20017;-70
2021/06/13 06:13:53;;;;;;;12.68;6.85;;;;;;;;;;5014362;28;20022;-70
2021/06/13 06:16:18;;;;;;;12.50;6.30;;;;;;;;;;5014616;28;20018;-69
2021/06/13 06:18:43;;;;;;;12.30;5.88;;;;;;;;;;5008566;28;20454;-69
2021/06/13 06:21:09;;;;;;;15.20;5.83;;;;;;;;;;5009580;28;20045;-69
2021/06/13 06:23:34;;;;;;;12.77;5.10;;;;;;;;;;5007090;28;20305;-68
2021/06/13 06:26:00;;;;;;;13.20;5.38;;;;;;;;;;5008391;28;20916;-69
2021/06/13 06:28:25;;;;;;;8.88;4.68;;;;;;;;;;5008919;28;20454;-68
2021/06/13 06:30:50;;;;;;;13.85;5.13;;;;;;;;;;5012239;28;20023;-68
2021/06/13 06:33:15;;;;;;;13.57;4.32;;;;;;;;;;5010810;28;20032;-68
2021/06/13 06:35:43;;;;;;;8.45;4.25;;;;;;;;;;5005825;28;20085;-69
2021/06/13 06:38:08;;;;;;;12.68;4.72;;;;;;;;;;5005404;28;20022;-72
2021/06/13 06:40:34;;;;;;;11.93;4.68;;;;;;;;;;5005344;28;20026;-71
2021/06/13 06:43:01;;;;;;;10.00;4.00;;;;;;;;;;5004526;28;20087;-71
2021/06/13 06:45:28;;;;;;;11.20;4.45;;;;;;;;;;5012404;28;20517;-71
2021/06/13 06:47:54;;;;;;;11.73;4.43;;;;;;;;;;5013205;28;20084;-71
2021/06/13 06:50:20;;;;;;;6.82;3.90;;;;;;;;;;5012931;28;20033;-71
2021/06/13 06:52:46;;;;;;;13.48;4.35;;;;;;;;;;5013682;28;20084;-70
2021/06/13 06:55:14;;;;;;;9.23;4.43;;;;;;;;;;5006721;28;20023;-71
2021/06/13 06:57:42;;;;;;;9.52;4.15;;;;;;;;;;4993436;28;20428;-71
2021/06/13 07:00:09;;;;;;;10.70;4.40;;;;;;;;;;5001809;28;20028;-72
2021/06/13 07:02:36;;;;;;;9.48;3.88;;;;;;;;;;5009893;28;20343;-72
2021/06/13 07:05:03;;;;;;;9.75;4.22;;;;;;;;;;4996419;28;20034;-71
2021/06/13 07:07:28;;;;;;;14.05;4.50;;;;;;;;;;4993201;28;20459;-72
2021/06/13 07:09:53;;;;;;;7.90;4.23;;;;;;;;;;4993186;28;20046;-71
2021/06/13 07:12:19;;;;;;;10.80;4.47;;;;;;;;;;4997924;28;20288;-72
2021/06/13 07:14:44;;;;;;;10.93;4.40;;;;;;;;;;5011515;28;20076;-72
2021/06/13 07:17:09;;;;;;;7.93;4.10;;;;;;;;;;5012659;28;20018;-72
2021/06/13 07:19:37;;;;;;;9.53;3.97;;;;;;;;;;5012104;28;20257;-73
2021/06/13 07:22:02;;;;;;;11.43;4.20;;;;;;;;;;5012901;28;20257;-71
2021/06/13 07:24:27;;;;;;;11.98;4.70;;;;;;;;;;5000089;28;20029;-72
2021/06/13 07:26:53;;;;;;;10.38;4.22;;;;;;;;;;5007172;28;20111;-72
2021/06/13 07:29:18;;;;;;;10.05;4.07;;;;;;;;;;5003615;28;20037;-71
2021/06/13 07:31:44;;;;;;;9.52;4.63;;;;;;;;;;5012827;28;20018;-72
2021/06/13 07:34:11;;;;;;;13.10;4.68;;;;;;;;;;5011702;28;20355;-73
2021/06/13 07:36:37;;;;;;;11.73;4.55;;;;;;;;;;5002856;28;20026;-72
2021/06/13 07:39:03;;;;;;;10.67;4.47;;;;;;;;;;5001857;28;20036;-73
2021/06/13 07:41:31;;;;;;;14.27;4.97;;;;;;;;;;5010056;28;20359;-72
2021/06/13 07:43:56;;;;;;;13.70;4.65;;;;;;;;;;5012748;28;20018;-72
2021/06/13 07:46:22;;;;;;;10.47;4.50;;;;;;;;;;5011921;28;20080;-72
2021/06/13 07:48:47;;;;;;;17.30;4.70;;;;;;;;;;5009420;28;20265;-72
2021/06/13 07:51:17;;;;;;;11.23;4.67;;;;;;;;;;5009389;28;20030;-72
2021/06/13 07:53:45;;;;;;;13.35;4.78;;;;;;;;;;4991616;28;20633;-72
2021/06/13 07:56:11;;;;;;;13.50;4.85;;;;;;;;;;4992793;28;20088;-72
2021/06/13 07:58:36;;;;;;;14.73;5.10;;;;;;;;;;5015761;28;20018;-72
2021/06/13 08:01:04;;;;;;;15.15;5.03;;;;;;;;;;5016639;28;20087;-72
2021/06/13 08:03:29;;;;;;;12.10;4.70;;;;;;;;;;4999065;28;20054;-72
2021/06/13 08:05:54;;;;;;;15.15;4.75;;;;;;;;;;5001688;28;20049;-72
2021/06/13 08:08:20;;;;;;;11.82;4.60;;;;;;;;;;5016102;28;20115;-71
2021/06/13 08:10:45;;;;;;;11.50;4.72;;;;;;;;;;5011439;28;20061;-72
2021/06/13 08:13:12;;;;;;;13.70;4.88;;;;;;;;;;5012270;28;20482;-72
2021/06/13 08:15:39;;;;;;;11.68;4.60;;;;;;;;;;4999243;28;20148;-72
2021/06/13 08:18:06;;;;;;;15.88;4.45;;;;;;;;;;5016218;28;20050;-73
2021/06/13 08:20:32;;;;;;;11.23;4.00;;;;;;;;;;5015319;28;20025;-72
2021/06/13 08:22:57;;;;;;;13.90;5.13;;;;;;;;;;5015813;28;20439;-72
2021/06/13 08:25:23;;;;;;;13.95;4.57;;;;;;;;;;5016210;28;20062;-75
2021/06/13 08:27:50;;;;;;;10.23;4.30;;;;;;;;;;5015455;28;20034;-72
2021/06/13 08:30:16;;;;;;;11.15;4.47;;;;;;;;;;5016066;28;20025;-71
2021/06/13 08:32:42;;;;;;;8.95;4.07;;;;;;;;;;5015455;28;20026;-72
2021/06/13 08:35:08;;;;;;;8.23;4.20;;;;;;;;;;5015881;28;20025;-72
2021/06/13 08:37:35;;;;;;;9.05;4.20;;;;;;;;;;5014315;28;20030;-72
2021/06/13 08:40:07;;;;;;;11.45;4.15;;;;;;;;;;5015668;28;20022;-72
2021/06/13 08:42:34;;;;;;;9.52;4.28;;;;;;;;;;5011249;28;20395;-71
2021/06/13 08:45:02;;;;;;;10.30;4.00;;;;;;;;;;4995930;28;20040;-71
2021/06/13 08:47:30;;;;;;;9.82;3.97;;;;;;;;;;4995129;28;20034;-72
2021/06/13 08:49:55;;;;;;;10.38;3.83;;;;;;;;;;4996336;28;20034;-71
2021/06/13 08:52:20;;;;;;;13.70;4.40;;;;;;;;;;4996255;28;20023;-71
2021/06/13 08:54:48;;;;;;;9.88;4.30;;;;;;;;;;5003827;28;20026;-71
2021/06/13 08:57:15;;;;;;;10.68;4.22;;;;;;;;;;5015365;28;20018;-71
2021/06/13 08:59:47;;;;;;;13.73;4.38;;;;;;;;;;5015375;28;20021;-71
2021/06/13 09:02:13;;;;;;;11.07;4.00;;;;;;;;;;5014838;28;20470;-72
2021/06/13 09:04:38;;;;;;;9.02;4.32;;;;;;;;;;5014660;28;20101;-72
2021/06/13 09:07:11;;;;;;;13.00;4.75;;;;;;;;;;5013795;28;20045;-71
2021/06/13 09:09:36;;;;;;;8.73;3.97;;;;;;;;;;5013977;28;20093;-72
2021/06/13 09:12:05;;;;;;;7.78;3.88;;;;;;;;;;5008143;28;20030;-71
2021/06/13 09:14:37;;;;;;;9.05;3.60;;;;;;;;;;4995297;28;20029;-71
2021/06/13 09:17:13;;;;;;;11.73;4.47;;;;;;;;;;5002130;28;20312;-71
2021/06/13 09:20:00;;;;;;;7.82;4.22;;;;;;;;;;5015262;28;20056;-72
2021/06/13 09:22:26;;;;;;;14.32;4.35;;;;;;;;;;5015018;28;20026;-72
2021/06/13 09:25:03;;;;;;;10.70;3.60;;;;;;;;;;5015622;28;20033;-71
2021/06/13 09:27:28;;;;;;;9.57;4.28;;;;;;;;;;5014431;28;20289;-71
2021/06/13 09:29:53;;;;;;;10.13;4.63;;;;;;;;;;5014897;28;20054;-71
2021/06/13 09:32:19;;;;;;;8.25;4.03;;;;;;;;;;4997366;28;20289;-72
2021/06/13 09:34:46;;;;;;;7.07;3.57;;;;;;;;;;4995357;28;20018;-72
2021/06/13 09:37:13;;;;;;;6.93;3.72;;;;;;;;;;5011957;28;20368;-72
2021/06/13 09:39:39;;;;;;;9.93;3.63;;;;;;;;;;5014809;28;20025;-71
2021/06/13 09:42:05;;;;;;;10.10;3.88;;;;;;;;;;5014832;28;20018;-72
2021/06/13 09:44:31;;;;;;;10.20;3.95;;;;;;;;;;5014613;28;20037;-72
2021/06/13 09:46:57;;;;;;;7.90;3.88;;;;;;;;;;5014739;28;20046;-72
2021/06/13 09:49:24;;;;;;;8.45;4.15;;;;;;;;;;5013512;28;20045;-72
2021/06/13 09:51:52;;;;;;;7.45;3.90;;;;;;;;;;4995159;28;20022;-71
2021/06/13 09:54:19;;;;;;;8.15;3.90;;;;;;;;;;4994764;28;20030;-72
2021/06/13 09:56:47;;;;;;;9.02;3.85;;;;;;;;;;4995106;28;20447;-72
2021/06/13 09:59:15;;;;;;;11.10;4.03;;;;;;;;;;5006966;28;20088;-72
2021/06/13 10:01:43;;;;;;;13.18;3.97;;;;;;;;;;5014295;28;20440;-71
2021/06/13 10:04:18;;;;;;;9.32;4.20;;;;;;;;;;5002769;28;20041;-72
2021/06/13 10:06:47;;;;;;;9.30;3.72;;;;;;;;;;4994800;28;20018;-72
2021/06/13 10:09:12;;;;;;;9.07;4.13;;;;;;;;;;4994429;28;20054;-72
2021/06/13 10:11:39;;;;;;;9.80;4.18;;;;;;;;;;5001762;28;20053;-71
2021/06/13 10:14:07;;;;;;;9.20;4.03;;;;;;;;;;5014295;28;20021;-72
2021/06/13 10:16:34;;;;;;;9.85;4.15;;;;;;;;;;5013574;28;20022;-73
2021/06/13 10:19:10;;;;;;;10.85;4.07;;;;;;;;;;5013914;28;20033;-73
2021/06/13 10:21:41;;;;;;;8.40;3.97;;;;;;;;;;5013426;28;20014;-73
2021/06/13 10:24:07;;;;;;;11.80;4.38;;;;;;;;;;5013067;28;20026;-73
2021/06/13 10:26:37;;;;;;;12.20;4.40;;;;;;;;;;5013008;28;20099;-73
2021/06/13 10:29:05;;;;;;;7.72;3.83;;;;;;;;;;5014114;28;20557;-73
2021/06/13 10:31:32;;;;;;;9.52;3.80;;;;;;;;;;5012276;28;20040;-73
2021/06/13 10:33:57;;;;;;;11.35;4.20;;;;;;;;;;5013623;28;20490;-74
2021/06/13 10:36:22;;;;;;;7.97;3.70;;;;;;;;;;4996416;28;20022;-73
2021/06/13 10:38:50;;;;;;;10.43;4.03;;;;;;;;;;5013873;28;20018;-73
2021/06/13 10:41:15;;;;;;;6.68;3.50;;;;;;;;;;5013088;28;20029;-73
2021/06/13 10:43:42;;;;;;;12.30;4.13;;;;;;;;;;5012736;28;20379;-73
2021/06/13 10:46:22;;;;;;;6.28;3.58;;;;;;;;;;5013640;28;20014;-73
2021/06/13 10:48:50;;;;;;;8.00;3.70;;;;;;;;;;5013929;28;20109;-73
2021/06/13 10:51:26;;;;;;;8.55;3.85;;;;;;;;;;5012791;28;20105;-73
2021/06/13 10:53:56;;;;;;;8.90;3.83;;;;;;;;;;5012084;28;20053;-73
2021/06/13 10:56:25;;;;;;;7.72;3.58;;;;;;;;;;5013661;28;20026;-73
2021/06/13 10:58:53;;;;;;;8.70;3.63;;;;;;;;;;5013578;28;20076;-73
2021/06/13 11:01:25;;;;;;;8.38;3.70;;;;;;;;;;5013619;28;20032;-73
2021/06/13 11:04:00;;;;;;;9.25;3.70;;;;;;;;;;5012215;28;20022;-74
2021/06/13 11:06:53;;;;;;;8.35;3.60;;;;;;;;;;5013200;28;20068;-73
2021/06/13 11:09:18;;;;;;;11.35;3.95;;;;;;;;;;5013353;28;20065;-74
2021/06/13 11:11:44;;;;;;;8.32;3.60;;;;;;;;;;5012513;28;20046;-73
2021/06/13 11:14:25;;;;;;;10.68;3.75;;;;;;;;;;5012599;28;20026;-74
2021/06/13 11:16:59;;;;;;;7.03;3.63;;;;;;;;;;4992915;28;20018;-73
2021/06/13 11:19:25;;;;;;;8.67;3.63;;;;;;;;;;4993496;28;20399;-73
2021/06/13 11:21:50;;;;;;;7.93;3.35;;;;;;;;;;4997843;28;20023;-73
2021/06/13 11:24:35;;;;;;;10.25;3.47;;;;;;;;;;4993333;28;20436;-73
2021/06/13 11:27:04;;;;;;;7.32;3.50;;;;;;;;;;5008171;28;20523;-73
2021/06/13 11:29:52;;;;;;;9.18;3.95;;;;;;;;;;5013217;28;20057;-74
2021/06/13 11:32:19;;;;;;;8.63;3.65;;;;;;;;;;5015071;28;20323;-74
2021/06/13 11:34:47;;;;;;;6.63;3.28;;;;;;;;;;5017037;28;20025;-74
2021/06/13 11:37:23;;;;;;;13.25;3.83;;;;;;;;;;5016932;28;20072;-74
2021/06/13 11:39:55;;;;;;;8.32;3.55;;;;;;;;;;5017105;28;20026;-75
2021/06/13 11:42:22;;;;;;;8.60;4.00;;;;;;;;;;5017199;28;20040;-75
2021/06/13 11:44:49;;;;;;;11.27;3.80;;;;;;;;;;5016116;28;20021;-74
2021/06/13 11:47:28;;;;;;;8.07;3.30;;;;;;;;;;5016427;28;20022;-75
2021/06/13 11:49:54;;;;;;;8.77;3.42;;;;;;;;;;5015442;28;20052;-75
2021/06/13 11:52:20;;;;;;;9.75;3.63;;;;;;;;;;5016487;28;20439;-75
2021/06/13 11:54:48;;;;;;;9.50;3.83;;;;;;;;;;5016593;28;20578;-76
2021/06/13 11:57:13;;;;;;;8.90;3.60;;;;;;;;;;5016117;28;20021;-75
2021/06/13 11:59:41;;;;;;;6.87;3.40;;;;;;;;;;5016701;28;20014;-75
2021/06/13 12:02:09;;;;;;;7.88;3.13;;;;;;;;;;5015705;28;20018;-75
2021/06/13 12:04:34;;;;;;;8.60;3.50;;;;;;;;;;5016820;28;20062;-75
2021/06/13 12:07:02;;;;;;;12.03;3.50;;;;;;;;;;5015937;28;20058;-75
2021/06/13 12:09:30;;;;;;;9.02;3.38;;;;;;;;;;5016356;28;20375;-75
2021/06/13 12:11:59;;;;;;;8.70;3.40;;;;;;;;;;5015913;28;20040;-75
2021/06/13 12:14:28;;;;;;;7.00;3.17;;;;;;;;;;5015533;28;20022;-75
2021/06/13 12:17:00;;;;;;;9.63;3.15;;;;;;;;;;5015864;28;20028;-75
2021/06/13 12:19:26;;;;;;;10.13;3.30;;;;;;;;;;4996661;28;20062;-75
2021/06/13 12:21:52;;;;;;;13.13;3.30;;;;;;;;;;4995681;28;20535;-75
2021/06/13 12:29:39;;;;;;;6.40;3.05;;;;;;;;;;5016499;28;20133;-76
2021/06/13 12:32:12;;;;;;;6.97;2.95;;;;;;;;;;5015614;28;20044;-76
2021/06/13 12:34:40;;;;;;;8.40;3.05;;;;;;;;;;5016070;28;20049;-75
2021/06/13 12:37:06;;;;;;;10.07;3.45;;;;;;;;;;5015168;28;20424;-76
2021/06/13 12:39:31;;;;;;;9.07;3.10;;;;;;;;;;5014919;28;20075;-76
2021/06/13 12:42:07;;;;;;;6.50;3.17;;;;;;;;;;5015631;28;20030;-75
2021/06/13 12:44:33;;;;;;;11.27;3.42;;;;;;;;;;5016000;28;20022;-76
2021/06/13 12:47:01;;;;;;;8.50;3.45;;;;;;;;;;5014292;28;20454;-76
2021/06/13 12:49:37;;;;;;;8.90;3.30;;;;;;;;;;5014365;28;20018;-76
2021/06/13 12:52:31;;;;;;;10.38;3.30;;;;;;;;;;5013022;28;20144;-76
2021/06/13 12:55:01;;;;;;;8.43;3.00;;;;;;;;;;4998811;28;20034;-75
2021/06/13 12:57:27;;;;;;;13.68;3.10;;;;;;;;;;4995365;28;20432;-76
2021/06/13 12:59:53;;;;;;;11.73;3.28;;;;;;;;;;5004337;28;20029;-76
2021/06/13 13:02:20;;;;;;;9.13;3.47;;;;;;;;;;5015424;28;20028;-77
2021/06/13 13:04:52;;;;;;;8.93;3.30;;;;;;;;;;5013996;28;20018;-77
2021/06/13 13:07:26;;;;;;;9.00;3.35;;;;;;;;;;5015434;28;20096;-77
2021/06/13 13:10:12;;;;;;;7.78;3.03;;;;;;;;;;5014982;28;20061;-76
2021/06/13 13:12:44;;;;;;;5.57;3.08;;;;;;;;;;5011357;28;20382;-76
2021/06/13 13:15:11;;;;;;;5.63;2.85;;;;;;;;;;4999112;28;20320;-77
2021/06/13 13:17:37;;;;;;;7.22;2.95;;;;;;;;;;4995558;28;20073;-74
2021/06/13 13:20:30;;;;;;;5.57;2.88;;;;;;;;;;5011150;28;20018;-74
2021/06/13 13:22:59;;;;;;;7.20;2.92;;;;;;;;;;4992990;28;20478;-74
2021/06/13 13:25:25;;;;;;;8.32;2.75;;;;;;;;;;5012749;28;20037;-74
2021/06/13 13:27:50;;;;;;;6.35;2.90;;;;;;;;;;5014803;28;20172;-74
2021/06/13 13:30:28;;;;;;;8.98;2.83;;;;;;;;;;5013472;28;20050;-74
2021/06/13 13:32:54;;;;;;;6.60;2.60;;;;;;;;;;5014637;28;20088;-74
2021/06/13 13:35:27;;;;;;;7.40;2.28;;;;;;;;;;5004877;28;20018;-74
2021/06/13 13:37:52;;;;;;;6.85;2.63;;;;;;;;;;4994539;28;20346;-74
2021/06/13 13:40:18;;;;;;;5.38;2.47;;;;;;;;;;5003268;28;20010;-76
2021/06/13 13:42:43;;;;;;;7.85;2.42;;;;;;;;;;5013909;28;20435;-75
2021/06/13 13:45:21;;;;;;;6.80;2.43;;;;;;;;;;5016068;28;20029;-75
2021/06/13 13:47:46;;;;;;;6.32;2.60;;;;;;;;;;5022458;28;20075;-75
2021/06/13 13:50:12;;;;;;;6.80;2.50;;;;;;;;;;4999765;28;20026;-74
2021/06/13 13:52:38;;;;;;;5.68;2.17;;;;;;;;;;5027448;28;20071;-76
2021/06/13 13:55:04;;;;;;;4.87;2.30;;;;;;;;;;5018158;28;20034;-78
2021/06/13 13:57:45;;;;;;;8.82;2.60;;;;;;;;;;5019677;28;20029;-77
2021/06/13 14:00:11;;;;;;;6.20;3.05;;;;;;;;;;5009371;28;20029;-76
2021/06/13 14:02:36;;;;;;;4.55;2.50;;;;;;;;;;5006517;28;20030;-79
2021/06/13 14:05:02;;;;;;;6.23;2.73;;;;;;;;;;5009560;28;20461;-77
2021/06/13 14:07:32;;;;;;;5.60;2.63;;;;;;;;;;5013190;28;20021;-77
2021/06/13 14:09:57;;;;;;;8.80;2.75;;;;;;;;;;5008835;28;20046;-77
2021/06/13 14:12:25;;;;;;;4.20;2.30;;;;;;;;;;5007199;28;20018;-76
2021/06/13 14:14:50;;;;;;;6.80;2.72;;;;;;;;;;5008177;28;20253;-77
2021/06/13 14:17:16;;;;;;;5.97;2.83;;;;;;;;;;5005348;28;20344;-77
2021/06/13 14:19:43;;;;;;;5.90;2.67;;;;;;;;;;5000909;28;20029;-76
2021/06/13 14:22:11;;;;;;;4.53;2.40;;;;;;;;;;5005246;28;20010;-78
2021/06/13 14:24:36;;;;;;;8.27;2.75;;;;;;;;;;5007280;28;20171;-78
2021/06/13 14:27:01;;;;;;;6.53;2.60;;;;;;;;;;4998314;28;20105;-82
2021/06/13 14:29:29;;;;;;;6.53;2.87;;;;;;;;;;4999162;28;20018;-75
2021/06/13 14:31:56;;;;;;;7.90;2.45;;;;;;;;;;5003073;28;20263;-76
2021/06/13 14:34:21;;;;;;;7.38;2.60;;;;;;;;;;5003853;28;20491;-76
2021/06/13 14:36:49;;;;;;;5.77;2.50;;;;;;;;;;4992858;28;20105;-76
2021/06/13 14:39:14;;;;;;;6.57;2.70;;;;;;;;;;4994245;28;20014;-76
2021/06/13 14:41:40;;;;;;;6.93;2.77;;;;;;;;;;4998620;28;20435;-74
2021/06/13 14:44:05;;;;;;;7.63;2.60;;;;;;;;;;5012825;28;20037;-75
2021/06/13 14:46:37;;;;;;;6.45;2.55;;;;;;;;;;5013682;28;20180;-74